LTBI/ESK METAR and TAF weather

Enter ICAO airport designator
Station Type Date Time Source
LTBI METAR 2018/12/15 00:50 UTC NOAA

LTBI 150050Z 06007KT 6000 FEW010 SCT025 BKN080 02/01 Q1023 RERA TEMPO 2000 BR RMK RWY08 10006KT 050V120


Station Type Date Time Source
LTBI Decoded METAR 2018/12/15 00:50 UTC NOAA

Eskisehir, Turkey (LTBI) 39-47N 030-34E 785M
Dec 14, 2018 - 07:50 PM EST / 2018.12.15 0050 UTC
Wind: from the ENE (060 degrees) at 8 MPH (7 KT):0
Visibility: 3 mile(s):0
Sky conditions: mostly cloudy
Temperature: 35 F (2 C)
Windchill: 28 F (-2 C):1
Dew Point: 33 F (1 C)
Relative Humidity: 93%
Pressure (altimeter): 30.21 in. Hg (1023 hPa)
ob: LTBI 150050Z 06007KT 6000 FEW010 SCT025 BKN080 02/01 Q1023 RERA TEMPO 2000 BR RMK RWY08 10006KT 050V120
cycle: 1

Station Type Date Time Source
LTBI TAF 2012/05/11 09:09 UTC NOAA

TAF LTBI 110740Z 1109/1121 VRB02KT 6000 -SHRA BKN030 BKN090
TEMPO 1112/1116 33015KT 4000 -TSRA FEW025CB BKN030


Example: see airport list